createdAt,value
2018-10-05T00:02:09.203Z,11.20
2018-10-05T00:05:33.624Z,11.20
2018-10-05T00:08:58.033Z,11.20
2018-10-05T00:12:22.464Z,11.20
2018-10-05T00:15:46.971Z,11.30
2018-10-05T00:19:11.539Z,11.20
2018-10-05T00:22:36.119Z,11.20
2018-10-05T00:26:00.585Z,11.30
2018-10-05T00:29:25.002Z,11.30
2018-10-05T00:32:49.437Z,11.20
2018-10-05T00:36:13.859Z,11.20
2018-10-05T00:39:38.272Z,11.20
2018-10-05T00:43:02.641Z,11.30
2018-10-05T00:46:27.049Z,11.30
2018-10-05T00:49:51.460Z,11.20
2018-10-05T00:53:15.898Z,11.20
2018-10-05T00:56:40.434Z,11.20
2018-10-05T01:00:04.974Z,11.30
2018-10-05T01:03:29.415Z,11.30
2018-10-05T01:06:53.862Z,11.30
2018-10-05T01:10:18.276Z,11.30
2018-10-05T01:13:42.665Z,11.30
2018-10-05T01:17:07.127Z,11.30
2018-10-05T01:20:31.581Z,11.30
2018-10-05T01:23:56.033Z,11.30
2018-10-05T01:27:20.451Z,11.30
2018-10-05T01:30:44.890Z,11.30
2018-10-05T01:34:09.335Z,11.30
2018-10-05T01:37:33.760Z,11.30
2018-10-05T01:40:58.191Z,11.30
2018-10-05T01:44:22.616Z,11.30
2018-10-05T01:47:47.033Z,11.30
2018-10-05T01:51:11.473Z,11.30
2018-10-05T01:54:35.906Z,11.20
2018-10-05T01:58:00.344Z,11.20
2018-10-05T02:01:24.841Z,11.10
2018-10-05T02:04:49.284Z,11.10
2018-10-05T02:08:13.689Z,11.10
2018-10-05T02:11:38.145Z,11.00
2018-10-05T02:15:02.573Z,11.00
2018-10-05T02:18:27.025Z,10.90
2018-10-05T02:21:51.570Z,10.90
2018-10-05T02:25:16.036Z,10.90
2018-10-05T02:28:40.409Z,10.90
2018-10-05T02:32:04.814Z,10.80
2018-10-05T02:35:29.211Z,10.80
2018-10-05T02:38:53.669Z,10.70
2018-10-05T02:42:18.078Z,10.70
2018-10-05T02:45:42.517Z,10.70
2018-10-05T02:49:07.153Z,10.70
2018-10-05T02:52:31.567Z,10.70
2018-10-05T02:55:56.004Z,10.70
2018-10-05T02:59:20.398Z,10.70
2018-10-05T03:02:44.888Z,10.70
2018-10-05T03:06:09.290Z,10.80
2018-10-05T03:09:33.723Z,10.70
2018-10-05T03:12:58.188Z,10.70
2018-10-05T03:16:22.610Z,10.80
2018-10-05T03:19:47.120Z,10.70
2018-10-05T03:23:11.483Z,10.60
2018-10-05T03:26:35.905Z,10.60
2018-10-05T03:30:00.347Z,10.60
2018-10-05T03:33:24.768Z,10.60
2018-10-05T03:36:49.174Z,10.50
2018-10-05T03:40:13.617Z,10.50
2018-10-05T03:43:38.031Z,10.50
2018-10-05T03:47:02.498Z,10.50
2018-10-05T03:50:27.037Z,10.50
2018-10-05T03:53:51.461Z,10.50
2018-10-05T03:57:15.901Z,10.50
2018-10-05T04:00:40.364Z,10.50
2018-10-05T04:04:04.785Z,10.50
2018-10-05T04:07:29.219Z,10.50
2018-10-05T04:10:53.622Z,10.40
2018-10-05T04:14:18.223Z,10.40
2018-10-05T04:17:42.702Z,10.30
2018-10-05T04:21:07.128Z,10.30
2018-10-05T04:24:31.542Z,10.30
2018-10-05T04:27:56.011Z,10.30
2018-10-05T04:31:20.447Z,10.20
2018-10-05T04:34:45.025Z,10.20
2018-10-05T04:38:09.444Z,10.20
2018-10-05T04:41:33.871Z,10.20
2018-10-05T04:44:58.346Z,10.10
2018-10-05T04:48:22.740Z,10.00
2018-10-05T04:51:47.178Z,9.90
2018-10-05T04:55:11.654Z,9.80
2018-10-05T04:58:36.101Z,9.70
2018-10-05T05:02:00.718Z,9.60
2018-10-05T05:05:25.153Z,9.50
2018-10-05T05:08:49.576Z,9.50
2018-10-05T05:12:14.038Z,9.50
2018-10-05T05:15:38.422Z,9.40
2018-10-05T05:19:02.886Z,9.50
2018-10-05T05:22:27.400Z,9.50
2018-10-05T05:25:51.824Z,9.60
2018-10-05T05:29:16.304Z,9.60
2018-10-05T05:32:40.742Z,9.60
2018-10-05T05:36:05.236Z,9.70
2018-10-05T05:39:29.625Z,9.70
2018-10-05T05:42:53.989Z,9.80
2018-10-05T05:46:18.762Z,9.90
2018-10-05T05:49:43.195Z,9.90
2018-10-05T05:53:07.650Z,9.90
2018-10-05T05:56:32.082Z,9.90
2018-10-05T05:59:56.473Z,9.90
2018-10-05T06:03:20.890Z,9.90
2018-10-05T06:06:45.295Z,9.90
2018-10-05T06:10:09.744Z,9.90
2018-10-05T06:13:34.182Z,10.00
2018-10-05T06:16:58.829Z,10.00
2018-10-05T06:20:23.256Z,10.00
2018-10-05T06:23:47.667Z,10.10
2018-10-05T06:27:12.086Z,10.10
2018-10-05T06:30:36.531Z,10.20
2018-10-05T06:34:00.961Z,10.30
2018-10-05T06:37:28.383Z,10.40
2018-10-05T06:40:52.900Z,10.40
2018-10-05T06:44:17.279Z,10.50
2018-10-05T06:47:41.684Z,10.60
2018-10-05T06:51:06.181Z,10.60
2018-10-05T06:54:30.604Z,10.70
2018-10-05T06:57:55.006Z,10.80
2018-10-05T07:01:19.581Z,10.90
2018-10-05T07:04:44.003Z,10.90
2018-10-05T07:08:08.456Z,11.00
2018-10-05T07:11:32.886Z,11.10
2018-10-05T07:14:57.262Z,11.30
2018-10-05T07:18:21.696Z,11.30
2018-10-05T07:21:46.174Z,11.40
2018-10-05T07:25:10.610Z,11.50
2018-10-05T07:28:35.126Z,11.50
2018-10-05T07:31:59.417Z,11.70
2018-10-05T07:35:23.847Z,11.80
2018-10-05T07:38:48.274Z,11.90
2018-10-05T07:42:12.729Z,12.10
2018-10-05T07:45:37.143Z,12.20
2018-10-05T07:49:01.574Z,12.40
2018-10-05T07:52:26.030Z,12.50
2018-10-05T07:55:50.430Z,12.50
2018-10-05T07:59:14.878Z,12.60
2018-10-05T08:02:39.383Z,12.70
2018-10-05T08:06:03.884Z,12.80
2018-10-05T08:09:28.346Z,13.00
2018-10-05T08:12:52.751Z,13.10
2018-10-05T08:16:17.170Z,13.20
2018-10-05T08:19:41.631Z,13.30
2018-10-05T08:23:06.043Z,13.50
2018-10-05T08:26:30.508Z,13.50
2018-10-05T08:29:54.932Z,13.60
2018-10-05T08:33:19.341Z,13.60
2018-10-05T08:36:43.756Z,13.70
2018-10-05T08:40:09.256Z,13.90
2018-10-05T08:43:33.634Z,14.00
2018-10-05T08:46:58.107Z,14.20
2018-10-05T08:50:22.527Z,14.30
2018-10-05T08:53:46.919Z,14.40
2018-10-05T08:57:11.304Z,14.50
2018-10-05T09:00:35.850Z,14.70
2018-10-05T09:04:00.152Z,14.90
2018-10-05T09:07:24.833Z,15.20
2018-10-05T09:10:50.125Z,15.40
2018-10-05T09:14:14.527Z,15.70
2018-10-05T09:17:39.021Z,15.90
2018-10-05T09:21:03.432Z,16.30
2018-10-05T09:24:27.903Z,16.70
2018-10-05T09:27:52.311Z,17.20
2018-10-05T09:31:16.738Z,18.00
2018-10-05T09:34:41.169Z,19.00
2018-10-05T09:38:05.615Z,19.80
2018-10-05T09:41:30.028Z,20.20
2018-10-05T09:44:54.428Z,20.60
2018-10-05T09:48:18.880Z,21.70
2018-10-05T09:51:43.350Z,22.10
2018-10-05T09:55:07.733Z,22.70
2018-10-05T09:58:32.203Z,23.40
2018-10-05T10:02:01.958Z,23.60
2018-10-05T10:05:26.388Z,24.20
2018-10-05T10:08:50.792Z,24.80
2018-10-05T10:12:15.226Z,24.80
2018-10-05T10:15:39.638Z,25.20
2018-10-05T10:19:04.063Z,25.40
2018-10-05T10:22:28.504Z,25.80
2018-10-05T10:25:52.895Z,25.70
2018-10-05T10:29:17.445Z,25.70
2018-10-05T10:32:41.768Z,25.90
2018-10-05T10:36:06.388Z,26.00
2018-10-05T10:39:30.798Z,25.20
2018-10-05T10:42:55.223Z,25.00
2018-10-05T10:46:19.630Z,24.60
2018-10-05T10:49:44.021Z,24.40
2018-10-05T10:53:08.525Z,24.60
2018-10-05T10:56:32.965Z,25.00
2018-10-05T10:59:57.380Z,25.30
2018-10-05T11:03:21.789Z,25.30
2018-10-05T11:06:46.313Z,26.00
2018-10-05T11:10:10.698Z,26.50
2018-10-05T11:13:35.164Z,27.30
2018-10-05T11:16:59.729Z,27.80
2018-10-05T11:20:24.129Z,28.20
2018-10-05T11:23:48.611Z,28.30
2018-10-05T11:27:13.059Z,28.40
2018-10-05T11:30:37.684Z,28.70
2018-10-05T11:34:02.105Z,29.30
2018-10-05T11:37:26.517Z,29.50
2018-10-05T11:40:51.060Z,29.70
2018-10-05T11:44:15.426Z,30.60
2018-10-05T11:47:39.792Z,30.30
2018-10-05T11:51:04.248Z,30.10
2018-10-05T11:54:28.699Z,30.40
2018-10-05T11:57:53.151Z,30.50
2018-10-05T12:01:17.631Z,30.80
2018-10-05T12:04:42.054Z,30.70
2018-10-05T12:08:06.498Z,30.90
2018-10-05T12:11:30.946Z,31.30
2018-10-05T12:14:55.381Z,31.80
2018-10-05T12:18:19.894Z,32.10
2018-10-05T12:21:44.320Z,32.20
2018-10-05T12:25:08.833Z,33.00
2018-10-05T12:28:33.218Z,33.50
2018-10-05T12:31:57.787Z,33.70
2018-10-05T12:35:22.231Z,34.20
2018-10-05T12:38:46.673Z,34.70
2018-10-05T12:42:11.302Z,34.70
2018-10-05T12:45:35.716Z,35.10
2018-10-05T12:49:00.137Z,35.20
2018-10-05T12:52:24.736Z,34.40
2018-10-05T12:55:49.495Z,34.10
2018-10-05T12:59:13.890Z,34.60
2018-10-05T13:02:38.265Z,35.60
2018-10-05T13:06:02.701Z,36.20
2018-10-05T13:09:27.121Z,36.60
2018-10-05T13:12:51.622Z,36.60
2018-10-05T13:16:15.963Z,37.20
2018-10-05T13:19:40.398Z,36.60
2018-10-05T13:23:04.771Z,35.50
2018-10-05T13:26:29.191Z,36.30
2018-10-05T13:29:53.643Z,36.40
2018-10-05T13:33:18.089Z,37.20
2018-10-05T13:36:42.524Z,37.20
2018-10-05T13:40:06.980Z,36.60
2018-10-05T13:43:31.495Z,37.10
2018-10-05T13:46:55.941Z,37.10
2018-10-05T13:50:20.336Z,37.50
2018-10-05T13:53:44.744Z,38.00
2018-10-05T13:57:09.145Z,38.10
2018-10-05T14:00:33.559Z,37.90
2018-10-05T14:03:57.953Z,37.40
2018-10-05T14:07:22.345Z,37.50
2018-10-05T14:10:46.728Z,37.60
2018-10-05T14:14:11.097Z,37.40
2018-10-05T14:17:35.543Z,38.30
2018-10-05T14:21:00.023Z,39.10
2018-10-05T14:24:24.459Z,38.50
2018-10-05T14:27:48.956Z,39.10
2018-10-05T14:31:13.376Z,40.10
2018-10-05T14:34:37.798Z,39.90
2018-10-05T14:38:02.261Z,40.20
2018-10-05T14:41:26.639Z,39.80
2018-10-05T14:44:51.060Z,40.50
2018-10-05T14:48:15.455Z,40.60
2018-10-05T14:51:39.849Z,40.60
2018-10-05T14:55:04.325Z,40.30
2018-10-05T14:58:28.761Z,40.90
2018-10-05T15:01:53.165Z,40.20
2018-10-05T15:05:17.586Z,39.70
2018-10-05T15:08:42.016Z,39.40
2018-10-05T15:12:06.459Z,40.00
2018-10-05T15:15:30.938Z,40.60
2018-10-05T15:18:55.367Z,40.10
2018-10-05T15:22:19.839Z,39.50
2018-10-05T15:25:44.252Z,39.60
2018-10-05T15:29:08.730Z,40.00
2018-10-05T15:32:33.131Z,39.40
2018-10-05T15:35:57.575Z,39.20
2018-10-05T15:39:21.971Z,39.00
2018-10-05T15:42:46.401Z,39.40
2018-10-05T15:46:11.704Z,39.00
2018-10-05T15:49:36.612Z,38.30
2018-10-05T15:53:01.124Z,38.10
2018-10-05T15:56:25.463Z,35.80
2018-10-05T15:59:50.077Z,33.20
2018-10-05T16:03:14.471Z,30.80
2018-10-05T16:06:38.937Z,28.90
2018-10-05T16:10:03.437Z,27.60
2018-10-05T16:13:27.842Z,26.40
2018-10-05T16:16:52.261Z,25.80
2018-10-05T16:20:16.725Z,25.20
2018-10-05T16:23:41.891Z,24.60
2018-10-05T16:27:06.404Z,24.40
2018-10-05T16:30:30.825Z,24.20
2018-10-05T16:33:55.363Z,23.90
2018-10-05T16:37:19.804Z,23.70
2018-10-05T16:40:44.210Z,23.40
2018-10-05T16:44:08.607Z,23.10
2018-10-05T16:47:34.451Z,23.00
2018-10-05T16:50:58.912Z,22.80
2018-10-05T16:54:23.346Z,22.60
2018-10-05T16:57:48.048Z,22.40
2018-10-05T17:01:13.108Z,22.30
2018-10-05T17:04:37.972Z,22.00
2018-10-05T17:08:02.981Z,21.80
2018-10-05T17:11:27.970Z,21.50
2018-10-05T17:14:52.417Z,21.40
2018-10-05T17:18:17.009Z,21.00
2018-10-05T17:21:42.068Z,20.70
2018-10-05T17:25:07.490Z,20.60
2018-10-05T17:28:32.594Z,20.40
2018-10-05T17:31:57.499Z,20.40
2018-10-05T17:35:22.212Z,20.20
2018-10-05T17:38:46.895Z,20.00
2018-10-05T17:42:11.379Z,19.80
2018-10-05T17:45:36.420Z,19.60
2018-10-05T17:49:01.701Z,19.50
2018-10-05T17:52:26.519Z,19.30
2018-10-05T17:55:51.978Z,19.20
2018-10-05T17:59:19.465Z,19.00
2018-10-05T18:02:46.782Z,18.80
2018-10-05T18:06:11.574Z,18.70
2018-10-05T18:09:36.644Z,18.70
2018-10-05T18:13:02.092Z,18.60
2018-10-05T18:16:26.515Z,18.50
2018-10-05T18:19:51.013Z,18.60
2018-10-05T18:23:15.455Z,18.70
2018-10-05T18:26:39.941Z,18.80
2018-10-05T18:30:04.440Z,18.80
2018-10-05T18:33:28.854Z,18.80
2018-10-05T18:36:53.830Z,18.90
2018-10-05T18:40:18.365Z,18.80
2018-10-05T18:43:42.830Z,18.80
2018-10-05T18:47:09.204Z,18.90
2018-10-05T18:50:34.187Z,18.90
2018-10-05T18:53:59.541Z,18.80
2018-10-05T18:57:24.782Z,18.80
2018-10-05T19:00:50.152Z,18.70
2018-10-05T19:04:14.971Z,18.70
2018-10-05T19:07:40.134Z,18.70
2018-10-05T19:11:04.823Z,18.60
2018-10-05T19:14:29.499Z,18.60
2018-10-05T19:17:54.236Z,18.40
2018-10-05T19:21:19.276Z,18.30
2018-10-05T19:24:43.971Z,18.20
2018-10-05T19:28:08.510Z,18.20
2018-10-05T19:31:33.596Z,18.00
2018-10-05T19:34:58.102Z,18.00
2018-10-05T19:38:22.614Z,17.90
2018-10-05T19:41:47.220Z,17.90
2018-10-05T19:45:11.847Z,17.80
2018-10-05T19:48:36.245Z,17.70
2018-10-05T19:52:00.653Z,17.70
2018-10-05T19:55:25.062Z,17.60
2018-10-05T19:58:49.484Z,17.50
2018-10-05T20:02:13.949Z,17.50
2018-10-05T20:05:38.330Z,17.40
2018-10-05T20:09:02.795Z,17.40
2018-10-05T20:12:27.270Z,17.30
2018-10-05T20:15:51.762Z,17.30
2018-10-05T20:19:16.240Z,17.30
2018-10-05T20:22:40.736Z,17.30
2018-10-05T20:26:05.195Z,17.30
2018-10-05T20:29:29.656Z,17.20
2018-10-05T20:32:54.088Z,17.20
2018-10-05T20:36:18.649Z,17.20
2018-10-05T20:39:42.979Z,17.10
2018-10-05T20:43:07.750Z,17.00
2018-10-05T20:46:32.216Z,17.00
2018-10-05T20:49:57.204Z,16.90
2018-10-05T20:53:22.115Z,16.90
2018-10-05T20:56:46.582Z,16.80
2018-10-05T21:00:11.015Z,16.70
2018-10-05T21:03:35.416Z,16.70
2018-10-05T21:07:00.612Z,16.60
2018-10-05T21:10:25.133Z,16.50
2018-10-05T21:13:49.768Z,16.50
2018-10-05T21:17:14.743Z,16.40
2018-10-05T21:20:39.547Z,16.40
2018-10-05T21:24:04.349Z,16.30
2018-10-05T21:27:28.998Z,16.20
2018-10-05T21:30:53.714Z,16.20
2018-10-05T21:34:18.175Z,16.10
2018-10-05T21:37:42.645Z,16.10
2018-10-05T21:41:07.351Z,16.00
2018-10-05T21:44:31.825Z,16.00
2018-10-05T21:47:56.295Z,16.00
2018-10-05T21:51:20.694Z,15.90
2018-10-05T21:54:45.068Z,15.80
2018-10-05T21:58:09.502Z,15.80
2018-10-05T22:01:33.971Z,15.80
2018-10-05T22:04:58.370Z,15.70
2018-10-05T22:08:22.768Z,15.70
2018-10-05T22:11:47.262Z,15.60
2018-10-05T22:15:11.646Z,15.60
2018-10-05T22:18:36.060Z,15.50
2018-10-05T22:22:00.549Z,15.50
2018-10-05T22:25:25.021Z,15.40
2018-10-05T22:28:49.457Z,15.40
2018-10-05T22:32:13.872Z,15.40
2018-10-05T22:35:38.476Z,15.30
2018-10-05T22:39:02.959Z,15.20
2018-10-05T22:42:27.417Z,15.20
2018-10-05T22:45:51.992Z,15.10
2018-10-05T22:49:16.685Z,15.00
2018-10-05T22:52:41.151Z,15.00
2018-10-05T22:56:05.594Z,14.90
2018-10-05T22:59:30.172Z,14.90
2018-10-05T23:02:54.632Z,14.80
2018-10-05T23:06:19.102Z,14.80
2018-10-05T23:09:43.501Z,14.70
2018-10-05T23:13:07.975Z,14.70
2018-10-05T23:16:32.692Z,14.70
2018-10-05T23:19:57.304Z,14.60
2018-10-05T23:23:21.735Z,14.50
2018-10-05T23:26:46.148Z,14.40
2018-10-05T23:30:10.580Z,14.40
2018-10-05T23:33:35.023Z,14.30
2018-10-05T23:36:59.446Z,14.30
2018-10-05T23:40:23.873Z,14.20
2018-10-05T23:43:48.290Z,14.20
2018-10-05T23:47:12.689Z,14.20
2018-10-05T23:50:37.137Z,14.10
2018-10-05T23:54:01.552Z,14.00
2018-10-05T23:57:25.995Z,13.90
